KWLD/WLD METAR and TAF weather

Enter ICAO airport designator
Station Type Date Time Source
KWLD METAR 2019/06/19 01:09 UTC NOAA

KWLD 190109Z AUTO 03006KT 10SM FEW100 19/17 A2982 RMK AO2 LTG DSNT ALQDS T01940167


Station Type Date Time Source
KWLD Decoded METAR 2019/06/19 01:09 UTC NOAA

STROTHER FIELD, KS, United States (KWLD) 37-10N 97-02W 350M
Jun 18, 2019 - 09:09 PM EDT / 2019.06.19 0109 UTC
Wind: from the NNE (030 degrees) at 7 MPH (6 KT):0
Visibility: 10 mile(s):0
Sky conditions: mostly clear
Weather: Lightning observed
Temperature: 66.9 F (19.4 C)
Dew Point: 62.1 F (16.7 C)
Relative Humidity: 84%
Pressure (altimeter): 29.82 in. Hg (1009 hPa)
ob: KWLD 190109Z AUTO 03006KT 10SM FEW100 19/17 A2982 RMK AO2 LTG DSNT ALQDS T01940167
cycle: 1

Station Type Date Time Source
KWLD TAF UTC NOAA

Error!

Example: see airport list